createdAt,value
2019-01-25T00:01:24.193Z,21.35
2019-01-25T00:03:53.149Z,21.02
2019-01-25T00:06:20.944Z,21.17
2019-01-25T00:08:48.935Z,20.52
2019-01-25T00:11:16.639Z,21.37
2019-01-25T00:13:45.538Z,21.12
2019-01-25T00:16:13.343Z,22.52
2019-01-25T00:18:42.111Z,23.20
2019-01-25T00:21:09.786Z,23.85
2019-01-25T00:23:37.744Z,23.35
2019-01-25T00:26:05.708Z,20.97
2019-01-25T00:28:33.617Z,22.55
2019-01-25T00:31:01.650Z,21.77
2019-01-25T00:33:29.540Z,23.35
2019-01-25T00:35:57.475Z,22.52
2019-01-25T00:38:25.242Z,23.57
2019-01-25T00:40:53.214Z,23.20
2019-01-25T00:43:20.972Z,21.42
2019-01-25T00:45:49.347Z,21.62
2019-01-25T00:48:18.455Z,23.15
2019-01-25T00:50:46.787Z,21.55
2019-01-25T00:53:14.573Z,21.35
2019-01-25T00:55:42.388Z,21.30
2019-01-25T00:58:10.808Z,22.58
2019-01-25T01:00:39.618Z,23.32
2019-01-25T01:03:07.511Z,22.55
2019-01-25T01:05:35.280Z,24.27
2019-01-25T01:08:03.708Z,24.50
2019-01-25T01:10:31.882Z,25.02
2019-01-25T01:13:02.610Z,27.90
2019-01-25T01:15:30.628Z,25.30
2019-01-25T01:17:58.537Z,26.60
2019-01-25T01:20:29.732Z,26.40
2019-01-25T01:22:58.801Z,27.02
2019-01-25T01:25:27.143Z,26.37
2019-01-25T01:27:56.494Z,23.60
2019-01-25T01:30:24.288Z,26.77
2019-01-25T01:32:53.640Z,27.07
2019-01-25T01:35:21.529Z,25.60
2019-01-25T01:37:50.468Z,25.77
2019-01-25T01:40:22.124Z,28.38
2019-01-25T01:42:51.701Z,26.20
2019-01-25T01:45:20.120Z,26.20
2019-01-25T01:47:49.026Z,27.27
2019-01-25T01:50:17.292Z,28.80
2019-01-25T01:52:47.344Z,27.20
2019-01-25T01:55:15.616Z,26.80
2019-01-25T01:57:45.527Z,27.60
2019-01-25T02:00:24.969Z,29.48
2019-01-25T02:02:53.013Z,30.10
2019-01-25T02:05:20.879Z,27.93
2019-01-25T02:07:48.785Z,28.40
2019-01-25T02:10:19.964Z,26.30
2019-01-25T02:12:48.854Z,27.42
2019-01-25T02:15:17.948Z,27.67
2019-01-25T02:17:47.922Z,28.60
2019-01-25T02:20:24.021Z,29.52
2019-01-25T02:22:53.248Z,29.65
2019-01-25T02:25:21.478Z,29.27
2019-01-25T02:27:49.644Z,28.90
2019-01-25T02:30:19.887Z,30.35
2019-01-25T02:32:47.896Z,30.30
2019-01-25T02:35:16.830Z,31.05
2019-01-25T02:37:44.877Z,32.38
2019-01-25T02:40:15.266Z,33.33
2019-01-25T02:42:45.300Z,32.45
2019-01-25T02:45:13.404Z,34.20
2019-01-25T02:47:41.153Z,33.67
2019-01-25T02:50:14.000Z,34.08
2019-01-25T02:52:42.172Z,36.23
2019-01-25T02:55:10.506Z,37.85
2019-01-25T02:57:38.468Z,37.00
2019-01-25T03:00:19.665Z,35.23
2019-01-25T03:02:48.023Z,32.15
2019-01-25T03:05:17.479Z,36.50
2019-01-25T03:07:50.625Z,34.43
2019-01-25T03:10:19.718Z,34.90
2019-01-25T03:12:48.410Z,32.15
2019-01-25T03:15:18.716Z,33.58
2019-01-25T03:17:46.939Z,31.00
2019-01-25T03:20:15.167Z,32.50
2019-01-25T03:22:43.311Z,32.15
2019-01-25T03:25:13.923Z,33.45
2019-01-25T03:27:41.884Z,34.53
2019-01-25T03:30:11.792Z,33.38
2019-01-25T03:32:40.092Z,32.17
2019-01-25T03:35:09.379Z,32.53
2019-01-25T03:37:37.336Z,31.85
2019-01-25T03:40:07.466Z,34.53
2019-01-25T03:42:35.154Z,33.05
2019-01-25T03:45:04.202Z,31.25
2019-01-25T03:47:32.042Z,31.65
2019-01-25T03:49:59.982Z,31.48
2019-01-25T03:52:27.826Z,32.58
2019-01-25T03:54:56.583Z,34.53
2019-01-25T03:57:24.387Z,34.03
2019-01-25T03:59:52.301Z,34.98
2019-01-25T04:02:20.170Z,36.75
2019-01-25T04:04:48.067Z,34.33
2019-01-25T04:07:15.906Z,35.60
2019-01-25T04:09:45.001Z,35.78
2019-01-25T04:12:13.997Z,35.05
2019-01-25T04:14:44.348Z,36.95
2019-01-25T04:17:12.040Z,36.85
2019-01-25T04:19:40.572Z,36.75
2019-01-25T04:22:08.316Z,38.02
2019-01-25T04:24:36.287Z,39.38
2019-01-25T04:27:04.303Z,39.38
2019-01-25T04:29:32.050Z,34.70
2019-01-25T04:31:59.803Z,36.58
2019-01-25T04:34:28.543Z,37.35
2019-01-25T04:37:01.813Z,36.58
2019-01-25T04:39:29.513Z,35.95
2019-01-25T04:41:57.484Z,37.23
2019-01-25T04:44:25.342Z,38.02
2019-01-25T04:46:54.024Z,36.90
2019-01-25T04:49:21.965Z,38.17
2019-01-25T04:51:50.724Z,39.42
2019-01-25T04:54:18.419Z,53.30
2019-01-25T04:56:47.151Z,73.52
2019-01-25T04:59:16.150Z,74.20
2019-01-25T05:01:47.409Z,63.60
2019-01-25T05:04:15.109Z,54.60
2019-01-25T05:06:43.224Z,45.33
2019-01-25T05:09:10.892Z,38.10
2019-01-25T05:11:39.961Z,35.45
2019-01-25T05:14:07.865Z,30.60
2019-01-25T05:16:35.819Z,25.60
2019-01-25T05:19:03.890Z,19.62
2019-01-25T05:21:32.067Z,14.50
2019-01-25T05:24:07.784Z,11.95
2019-01-25T05:26:35.850Z,12.00
2019-01-25T05:29:03.854Z,9.65
2019-01-25T05:31:31.933Z,7.15
2019-01-25T05:33:59.883Z,7.58
2019-01-25T05:36:27.766Z,7.27
2019-01-25T05:38:56.925Z,7.22
2019-01-25T05:41:28.503Z,7.55
2019-01-25T05:43:54.252Z,8.30
2019-01-25T05:46:22.267Z,8.78
2019-01-25T05:48:52.719Z,8.90
2019-01-25T05:51:20.664Z,7.15
2019-01-25T05:53:51.134Z,7.70
2019-01-25T05:56:19.952Z,8.55
2019-01-25T05:58:48.107Z,9.18
2019-01-25T06:01:16.203Z,8.68
2019-01-25T06:03:48.031Z,7.35
2019-01-25T06:06:16.059Z,8.40
2019-01-25T06:08:44.328Z,8.73
2019-01-25T06:11:12.878Z,9.15
2019-01-25T06:13:42.906Z,8.43
2019-01-25T06:16:11.560Z,9.70
2019-01-25T06:18:41.494Z,9.63
2019-01-25T06:21:10.319Z,8.98
2019-01-25T06:23:39.400Z,11.28
2019-01-25T06:26:08.689Z,9.45
2019-01-25T06:28:36.935Z,11.65
2019-01-25T06:31:05.229Z,11.93
2019-01-25T06:33:33.315Z,12.53
2019-01-25T06:36:01.139Z,13.58
2019-01-25T06:38:29.048Z,15.95
2019-01-25T06:40:56.887Z,18.42
2019-01-25T06:43:24.795Z,19.57
2019-01-25T06:45:53.465Z,19.07
2019-01-25T06:48:21.864Z,23.07
2019-01-25T06:50:49.980Z,24.18
2019-01-25T06:53:17.808Z,24.67
2019-01-25T06:55:45.747Z,25.88
2019-01-25T06:58:23.578Z,24.37
2019-01-25T07:00:58.811Z,26.15
2019-01-25T07:03:26.463Z,25.77
2019-01-25T07:05:54.375Z,24.92
2019-01-25T07:08:22.219Z,26.70
2019-01-25T07:10:51.363Z,27.40
2019-01-25T07:13:19.434Z,25.27
2019-01-25T07:15:47.400Z,28.17
2019-01-25T07:18:15.296Z,27.55
2019-01-25T07:20:45.183Z,25.40
2019-01-25T07:23:13.130Z,23.75
2019-01-25T07:25:44.710Z,23.18
2019-01-25T07:28:12.481Z,22.30
2019-01-25T07:30:41.146Z,24.02
2019-01-25T07:33:09.077Z,23.38
2019-01-25T07:35:36.905Z,22.87
2019-01-25T07:38:05.022Z,23.80
2019-01-25T07:40:33.098Z,23.92
2019-01-25T07:43:01.069Z,23.42
2019-01-25T07:45:30.621Z,24.18
2019-01-25T07:47:58.787Z,24.50
2019-01-25T07:50:26.555Z,21.48
2019-01-25T07:52:54.559Z,24.55
2019-01-25T07:55:22.321Z,26.87
2019-01-25T07:57:51.031Z,26.27
2019-01-25T08:00:18.804Z,30.00
2019-01-25T08:02:46.748Z,30.75
2019-01-25T08:05:14.437Z,37.85
2019-01-25T08:07:42.526Z,39.95
2019-01-25T08:10:12.331Z,39.30
2019-01-25T08:12:42.403Z,37.03
2019-01-25T08:15:13.534Z,35.78
2019-01-25T08:17:41.377Z,37.30
2019-01-25T08:20:10.584Z,38.17
2019-01-25T08:22:38.446Z,34.55
2019-01-25T08:25:06.819Z,35.28
2019-01-25T08:27:34.842Z,34.83
2019-01-25T08:30:04.674Z,33.88
2019-01-25T08:32:32.734Z,34.53
2019-01-25T08:35:01.748Z,34.10
2019-01-25T08:37:32.043Z,35.52
2019-01-25T08:39:59.684Z,33.80
2019-01-25T08:42:27.755Z,38.67
2019-01-25T08:44:55.606Z,35.85
2019-01-25T08:47:23.503Z,31.05
2019-01-25T08:49:57.904Z,25.72
2019-01-25T08:52:24.623Z,9.98
2019-01-25T08:54:52.639Z,12.13
2019-01-25T08:57:20.620Z,12.15
2019-01-25T08:59:49.442Z,8.73
2019-01-25T09:02:17.193Z,7.55
2019-01-25T09:04:45.172Z,7.05
2019-01-25T09:07:12.895Z,6.55
2019-01-25T09:09:40.567Z,6.70
2019-01-25T09:12:08.831Z,6.85
2019-01-25T09:14:36.982Z,6.95
2019-01-25T09:17:04.780Z,7.17
2019-01-25T09:19:32.708Z,9.50
2019-01-25T09:22:00.535Z,8.70
2019-01-25T09:24:28.871Z,8.23
2019-01-25T09:26:58.217Z,6.33
2019-01-25T09:29:26.230Z,6.17
2019-01-25T09:31:55.417Z,5.45
2019-01-25T09:34:23.247Z,5.95
2019-01-25T09:36:51.029Z,5.83
2019-01-25T09:39:18.897Z,6.28
2019-01-25T09:41:52.537Z,6.00
2019-01-25T09:44:21.613Z,5.10
2019-01-25T09:46:51.610Z,5.90
2019-01-25T09:49:19.409Z,5.80
2019-01-25T09:51:48.197Z,5.30
2019-01-25T09:54:15.954Z,5.08
2019-01-25T09:56:43.774Z,5.87
2019-01-25T09:59:11.732Z,6.08
2019-01-25T10:01:40.748Z,5.87
2019-01-25T10:04:08.638Z,6.00
2019-01-25T10:06:36.521Z,7.42
2019-01-25T10:09:07.738Z,6.42
2019-01-25T10:11:35.497Z,13.55
2019-01-25T10:14:03.719Z,9.55
2019-01-25T10:16:31.624Z,8.23
2019-01-25T10:19:01.625Z,7.75
2019-01-25T10:21:29.366Z,10.13
2019-01-25T10:23:58.538Z,10.38
2019-01-25T10:26:26.336Z,9.15
2019-01-25T10:28:55.211Z,5.92
2019-01-25T10:31:23.321Z,6.30
2019-01-25T10:33:51.351Z,5.97
2019-01-25T10:36:19.040Z,6.60
2019-01-25T10:38:46.986Z,6.87
2019-01-25T10:41:14.760Z,6.55
2019-01-25T10:43:42.766Z,6.22
2019-01-25T10:46:10.506Z,5.65
2019-01-25T10:48:39.292Z,6.87
2019-01-25T10:51:08.333Z,5.97
2019-01-25T10:53:36.152Z,5.92
2019-01-25T10:56:05.090Z,6.05
2019-01-25T10:58:32.791Z,6.10
2019-01-25T11:01:00.628Z,5.78
2019-01-25T11:03:28.447Z,6.03
2019-01-25T11:05:56.146Z,6.30
2019-01-25T11:08:24.275Z,6.42
2019-01-25T11:10:52.954Z,6.65
2019-01-25T11:13:20.786Z,6.47
2019-01-25T11:15:49.022Z,6.85
2019-01-25T11:18:17.075Z,6.47
2019-01-25T11:20:46.879Z,6.95
2019-01-25T11:23:14.549Z,5.83
2019-01-25T11:25:42.541Z,6.15
2019-01-25T11:28:10.386Z,6.47
2019-01-25T11:30:38.316Z,6.47
2019-01-25T11:33:06.266Z,7.15
2019-01-25T11:35:34.129Z,8.43
2019-01-25T11:38:01.844Z,10.20
2019-01-25T11:40:35.083Z,8.83
2019-01-25T11:43:08.580Z,8.93
2019-01-25T11:45:37.484Z,8.33
2019-01-25T11:48:08.801Z,8.50
2019-01-25T11:50:36.543Z,7.90
2019-01-25T11:53:04.455Z,9.40
2019-01-25T11:55:32.466Z,8.88
2019-01-25T11:58:01.142Z,10.00
2019-01-25T12:00:29.650Z,9.68
2019-01-25T12:02:57.371Z,9.60
2019-01-25T12:05:26.489Z,10.40
2019-01-25T12:07:56.395Z,9.73
2019-01-25T12:10:26.320Z,7.37
2019-01-25T12:12:54.094Z,7.83
2019-01-25T12:15:21.979Z,8.18
2019-01-25T12:17:49.958Z,8.35
2019-01-25T12:20:22.737Z,8.33
2019-01-25T12:22:50.641Z,8.35
2019-01-25T12:25:18.443Z,7.80
2019-01-25T12:27:47.126Z,9.18
2019-01-25T12:30:24.361Z,8.60
2019-01-25T12:32:53.556Z,7.60
2019-01-25T12:35:21.363Z,7.40
2019-01-25T12:37:49.159Z,6.85
2019-01-25T12:40:17.240Z,6.90
2019-01-25T12:42:45.144Z,7.58
2019-01-25T12:45:16.247Z,6.10
2019-01-25T12:47:44.335Z,7.05
2019-01-25T12:50:21.532Z,7.40
2019-01-25T12:52:50.283Z,7.45
2019-01-25T12:55:18.292Z,7.37
2019-01-25T12:57:47.342Z,7.72
2019-01-25T13:00:19.449Z,6.85
2019-01-25T13:02:47.997Z,7.53
2019-01-25T13:05:17.757Z,7.15
2019-01-25T13:07:46.653Z,8.25
2019-01-25T13:10:15.197Z,10.50
2019-01-25T13:12:43.638Z,8.38
2019-01-25T13:15:11.967Z,8.55
2019-01-25T13:17:39.867Z,8.60
2019-01-25T13:20:14.451Z,9.00
2019-01-25T13:22:42.493Z,8.40
2019-01-25T13:25:10.420Z,8.50
2019-01-25T13:27:38.535Z,8.13
2019-01-25T13:30:12.982Z,8.38
2019-01-25T13:32:42.036Z,8.00
2019-01-25T13:35:12.174Z,7.80
2019-01-25T13:37:40.152Z,6.85
2019-01-25T13:40:12.560Z,8.35
2019-01-25T13:42:40.553Z,7.37
2019-01-25T13:45:11.139Z,9.90
2019-01-25T13:47:39.148Z,13.35
2019-01-25T13:50:09.517Z,17.15
2019-01-25T13:52:37.645Z,14.60
2019-01-25T13:55:10.081Z,13.98
2019-01-25T13:57:37.798Z,10.75
2019-01-25T14:00:10.283Z,9.13
2019-01-25T14:02:38.049Z,9.65
2019-01-25T14:05:08.267Z,10.15
2019-01-25T14:07:36.369Z,8.85
2019-01-25T14:10:08.230Z,10.28
2019-01-25T14:12:35.934Z,9.00
2019-01-25T14:15:08.539Z,10.63
2019-01-25T14:17:36.371Z,10.78
2019-01-25T14:20:07.308Z,9.88
2019-01-25T14:22:35.369Z,11.33
2019-01-25T14:25:04.738Z,11.28
2019-01-25T14:27:32.746Z,11.78
2019-01-25T14:30:04.278Z,10.60
2019-01-25T14:32:32.155Z,11.10
2019-01-25T14:35:02.477Z,10.40
2019-01-25T14:37:30.284Z,9.93
2019-01-25T14:39:58.557Z,8.50
2019-01-25T14:42:26.427Z,9.20
2019-01-25T14:44:55.609Z,9.93
2019-01-25T14:47:23.386Z,8.08
2019-01-25T14:49:51.360Z,7.65
2019-01-25T14:52:19.201Z,7.95
2019-01-25T14:54:46.946Z,8.60
2019-01-25T14:57:14.910Z,9.43
2019-01-25T14:59:42.717Z,9.65
2019-01-25T15:02:10.404Z,9.05
2019-01-25T15:04:38.540Z,9.78
2019-01-25T15:07:06.245Z,8.38
2019-01-25T15:09:34.280Z,8.60
2019-01-25T15:12:07.853Z,9.08
2019-01-25T15:14:35.561Z,8.98
2019-01-25T15:17:03.651Z,8.83
2019-01-25T15:19:31.466Z,9.15
2019-01-25T15:21:59.431Z,9.48
2019-01-25T15:24:27.199Z,8.33
2019-01-25T15:26:55.090Z,11.05
2019-01-25T15:29:22.946Z,11.10
2019-01-25T15:31:50.799Z,10.78
2019-01-25T15:34:18.577Z,11.00
2019-01-25T15:36:47.262Z,11.38
2019-01-25T15:39:15.162Z,9.85
2019-01-25T15:41:43.062Z,11.55
2019-01-25T15:44:10.873Z,9.45
2019-01-25T15:46:38.856Z,9.33
2019-01-25T15:49:06.592Z,9.75
2019-01-25T15:51:34.533Z,10.40
2019-01-25T15:54:03.786Z,9.93
2019-01-25T15:56:31.491Z,10.55
2019-01-25T15:58:59.338Z,10.00
2019-01-25T16:01:27.227Z,11.60
2019-01-25T16:03:55.202Z,9.85
2019-01-25T16:06:23.059Z,8.65
2019-01-25T16:08:52.386Z,9.65
2019-01-25T16:11:20.346Z,8.43
2019-01-25T16:13:49.822Z,10.32
2019-01-25T16:16:18.143Z,9.00
2019-01-25T16:18:45.937Z,11.20
2019-01-25T16:21:13.854Z,11.03
2019-01-25T16:23:41.747Z,12.20
2019-01-25T16:26:09.681Z,11.35
2019-01-25T16:28:38.654Z,13.35
2019-01-25T16:31:06.643Z,11.30
2019-01-25T16:33:34.740Z,13.10
2019-01-25T16:36:02.831Z,11.00
2019-01-25T16:38:30.880Z,9.53
2019-01-25T16:40:59.242Z,11.00
2019-01-25T16:43:27.091Z,11.55
2019-01-25T16:45:54.978Z,14.87
2019-01-25T16:48:22.843Z,17.57
2019-01-25T16:50:50.749Z,21.17
2019-01-25T16:53:18.431Z,24.75
2019-01-25T16:55:48.308Z,34.00
2019-01-25T16:58:18.348Z,26.35
2019-01-25T17:00:47.507Z,28.60
2019-01-25T17:03:17.270Z,22.48
2019-01-25T17:05:46.427Z,17.92
2019-01-25T17:08:14.206Z,13.32
2019-01-25T17:10:43.080Z,11.18
2019-01-25T17:13:11.056Z,10.20
2019-01-25T17:15:38.808Z,9.95
2019-01-25T17:18:06.789Z,9.60
2019-01-25T17:20:37.004Z,11.53
2019-01-25T17:23:05.485Z,12.23
2019-01-25T17:25:34.015Z,12.10
2019-01-25T17:28:07.467Z,10.50
2019-01-25T17:30:36.200Z,9.25
2019-01-25T17:33:03.992Z,11.35
2019-01-25T17:35:32.155Z,11.08
2019-01-25T17:38:00.609Z,9.30
2019-01-25T17:40:46.122Z,9.08
2019-01-25T17:43:08.796Z,8.33
2019-01-25T17:45:38.518Z,8.30
2019-01-25T17:48:06.794Z,9.00
2019-01-25T17:50:35.632Z,11.00
2019-01-25T17:53:04.138Z,8.98
2019-01-25T17:55:33.081Z,11.90
2019-01-25T17:58:07.702Z,11.10
2019-01-25T18:00:36.251Z,9.05
2019-01-25T18:03:04.535Z,9.60
2019-01-25T18:05:32.964Z,10.95
2019-01-25T18:08:01.864Z,11.73
2019-01-25T18:10:30.060Z,13.10
2019-01-25T18:12:58.146Z,14.30
2019-01-25T18:15:26.579Z,12.78
2019-01-25T18:17:54.305Z,12.18
2019-01-25T18:20:22.557Z,8.75
2019-01-25T18:22:50.685Z,10.10
2019-01-25T18:25:22.538Z,9.20
2019-01-25T18:27:54.301Z,8.43
2019-01-25T18:30:29.519Z,9.35
2019-01-25T18:32:58.045Z,10.03
2019-01-25T18:35:27.732Z,8.10
2019-01-25T18:37:55.961Z,7.05
2019-01-25T18:40:23.956Z,8.65
2019-01-25T18:42:51.860Z,9.90
2019-01-25T18:45:19.844Z,9.70
2019-01-25T18:47:47.602Z,9.70
2019-01-25T18:50:15.837Z,12.45
2019-01-25T18:52:45.927Z,12.95
2019-01-25T18:55:16.297Z,12.93
2019-01-25T18:57:44.803Z,10.63
2019-01-25T19:00:15.825Z,9.93
2019-01-25T19:02:43.966Z,16.25
2019-01-25T19:05:12.236Z,7.20
2019-01-25T19:07:40.628Z,4.90
2019-01-25T19:10:11.834Z,33.65
2019-01-25T19:12:39.520Z,29.75
2019-01-25T19:15:10.209Z,10.50
2019-01-25T19:17:41.883Z,5.22
2019-01-25T19:20:14.152Z,5.03
2019-01-25T19:22:42.511Z,4.65
2019-01-25T19:25:10.780Z,5.20
2019-01-25T19:27:40.410Z,4.70
2019-01-25T19:30:16.323Z,5.20
2019-01-25T19:32:47.656Z,3.90
2019-01-25T19:35:15.674Z,5.42
2019-01-25T19:37:43.493Z,5.20
2019-01-25T19:40:13.204Z,5.70
2019-01-25T19:42:41.279Z,6.42
2019-01-25T19:45:12.040Z,6.97
2019-01-25T19:47:40.259Z,7.97
2019-01-25T19:50:10.871Z,8.20
2019-01-25T19:52:39.052Z,7.95
2019-01-25T19:55:10.337Z,6.78
2019-01-25T19:57:40.512Z,12.13
2019-01-25T20:00:15.946Z,10.00
2019-01-25T20:02:44.469Z,6.37
2019-01-25T20:05:14.477Z,6.62
2019-01-25T20:07:44.652Z,9.13
2019-01-25T20:10:13.553Z,9.40
2019-01-25T20:12:43.627Z,10.10
2019-01-25T20:15:19.369Z,9.45
2019-01-25T20:17:44.757Z,13.35
2019-01-25T20:20:18.750Z,11.35
2019-01-25T20:22:46.844Z,9.93
2019-01-25T20:25:14.914Z,10.10
2019-01-25T20:27:43.173Z,11.40
2019-01-25T20:30:19.885Z,9.18
2019-01-25T20:32:48.995Z,10.70
2019-01-25T20:35:18.176Z,11.33
2019-01-25T20:37:48.814Z,11.53
2019-01-25T20:40:17.956Z,9.23
2019-01-25T20:42:47.846Z,8.43
2019-01-25T20:45:27.087Z,7.72
2019-01-25T20:47:51.339Z,7.05
2019-01-25T20:50:21.768Z,20.68
2019-01-25T20:52:50.721Z,74.75
2019-01-25T20:55:19.276Z,18.27
2019-01-25T20:57:49.355Z,12.00
2019-01-25T21:00:23.894Z,11.93
2019-01-25T21:02:52.109Z,10.48
2019-01-25T21:05:20.107Z,9.60
2019-01-25T21:07:48.245Z,7.80
2019-01-25T21:10:17.831Z,9.50
2019-01-25T21:12:48.016Z,13.72
2019-01-25T21:15:17.327Z,16.27
2019-01-25T21:17:46.355Z,15.70
2019-01-25T21:20:17.269Z,12.28
2019-01-25T21:22:46.315Z,11.22
2019-01-25T21:25:14.410Z,13.13
2019-01-25T21:27:43.491Z,11.65
2019-01-25T21:30:20.388Z,14.47
2019-01-25T21:32:48.303Z,40.90
2019-01-25T21:35:17.880Z,10.10
2019-01-25T21:37:45.897Z,8.03
2019-01-25T21:40:16.284Z,9.55
2019-01-25T21:42:45.328Z,15.98
2019-01-25T21:45:18.590Z,8.65
2019-01-25T21:47:46.795Z,7.22
2019-01-25T21:50:17.076Z,9.38
2019-01-25T21:52:45.097Z,63.92
2019-01-25T21:55:13.699Z,43.42
2019-01-25T21:57:41.540Z,16.37
2019-01-25T22:00:14.078Z,15.05
2019-01-25T22:02:48.220Z,15.63
2019-01-25T22:05:16.436Z,13.68
2019-01-25T22:07:44.755Z,11.22
2019-01-25T22:10:15.368Z,10.95
2019-01-25T22:12:45.122Z,13.43
2019-01-25T22:15:14.812Z,11.40
2019-01-25T22:17:43.920Z,8.90
2019-01-25T22:20:15.217Z,8.98
2019-01-25T22:22:43.356Z,177.38
2019-01-25T22:25:11.761Z,47.13
2019-01-25T22:27:39.706Z,8.15
2019-01-25T22:30:10.563Z,8.78
2019-01-25T22:32:38.711Z,7.62
2019-01-25T22:35:07.001Z,8.30
2019-01-25T22:37:39.887Z,7.12
2019-01-25T22:40:11.842Z,8.05
2019-01-25T22:42:39.600Z,8.60
2019-01-25T22:45:09.974Z,8.25
2019-01-25T22:47:37.778Z,7.42
2019-01-25T22:50:10.275Z,7.37
2019-01-25T22:52:39.163Z,8.05
2019-01-25T22:55:09.191Z,8.50
2019-01-25T22:57:38.275Z,8.43
2019-01-25T23:00:15.388Z,7.72
2019-01-25T23:02:44.756Z,8.68
2019-01-25T23:05:24.315Z,9.23
2019-01-25T23:07:52.276Z,8.80
2019-01-25T23:10:21.183Z,8.50
2019-01-25T23:12:50.002Z,8.40
2019-01-25T23:15:18.416Z,9.33
2019-01-25T23:17:47.504Z,8.58
2019-01-25T23:20:15.989Z,9.53
2019-01-25T23:22:50.022Z,9.10
2019-01-25T23:25:18.038Z,8.00
2019-01-25T23:27:46.025Z,8.68
2019-01-25T23:30:17.087Z,7.80
2019-01-25T23:32:44.948Z,7.87
2019-01-25T23:35:12.883Z,7.83
2019-01-25T23:37:40.605Z,7.55
2019-01-25T23:40:14.259Z,7.85
2019-01-25T23:42:42.479Z,7.30
2019-01-25T23:45:11.524Z,7.35
2019-01-25T23:47:40.643Z,8.03
2019-01-25T23:50:10.531Z,9.70
2019-01-25T23:52:38.451Z,7.30
2019-01-25T23:55:06.961Z,9.30
2019-01-25T23:57:35.711Z,7.20
